< < Back
Terminal Aerodrome Forecast


Current Version              Previous Versions:   1  2  3  4  5  6  7  8  9  

Terminal Aerodrome Forecast

135
FTUS44 KOHX 271100 AAA
TAFCSV
TAF AMD
KCSV 271126Z 2711/2812 00000KT 4SM BR SKC
      TEMPO 2712/2713 1SM BR BKN002
     FM271400 03005KT P6SM SCT035 BKN200
     FM280000 00000KT P6SM SCT150
     FM280500 00000KT 5SM BR SCT150
     FM280800 00000KT 3SM BR SCT150
      TEMPO 2808/2812 1SM BR=

Latest METAR

542
SAUS70 KWBC 271800
MTRCSV
METAR KCSV 271753Z AUTO VRB03KT 10SM FEW046 28/16 A3016 RMK AO2 SLP190
T02780161 10289 20194 58008


USA.gov is the U.S. government's official web portal to all federal, state and local government web resources and services.